createdAt,value
2019-03-15T00:02:05.461Z,14.27
2019-03-15T00:04:33.533Z,16.80
2019-03-15T00:07:01.653Z,11.73
2019-03-15T00:09:29.889Z,13.97
2019-03-15T00:11:57.970Z,15.00
2019-03-15T00:14:27.574Z,12.97
2019-03-15T00:16:55.730Z,9.37
2019-03-15T00:19:23.802Z,10.50
2019-03-15T00:21:52.271Z,11.40
2019-03-15T00:24:20.558Z,13.60
2019-03-15T00:26:48.678Z,9.17
2019-03-15T00:29:16.898Z,8.80
2019-03-15T00:31:45.295Z,8.97
2019-03-15T00:34:13.322Z,10.50
2019-03-15T00:36:41.438Z,11.53
2019-03-15T00:39:09.941Z,13.70
2019-03-15T00:41:37.993Z,8.83
2019-03-15T00:44:06.405Z,11.30
2019-03-15T00:46:34.481Z,10.20
2019-03-15T00:49:02.545Z,12.43
2019-03-15T00:51:30.751Z,10.17
2019-03-15T00:53:58.832Z,11.00
2019-03-15T00:56:28.382Z,8.80
2019-03-15T00:58:56.608Z,12.53
2019-03-15T01:01:24.706Z,9.93
2019-03-15T01:03:53.180Z,17.10
2019-03-15T01:06:21.626Z,13.83
2019-03-15T01:08:49.750Z,10.33
2019-03-15T01:11:17.958Z,19.40
2019-03-15T01:13:46.305Z,13.57
2019-03-15T01:16:14.572Z,10.73
2019-03-15T01:18:42.701Z,11.17
2019-03-15T01:21:11.097Z,12.07
2019-03-15T01:23:39.441Z,9.67
2019-03-15T01:26:07.812Z,16.60
2019-03-15T01:28:36.154Z,16.30
2019-03-15T01:31:04.672Z,13.17
2019-03-15T01:33:33.764Z,13.30
2019-03-15T01:36:02.213Z,12.63
2019-03-15T01:38:30.341Z,12.97
2019-03-15T01:40:58.482Z,13.50
2019-03-15T01:43:27.824Z,11.97
2019-03-15T01:45:55.883Z,15.07
2019-03-15T01:48:23.961Z,9.73
2019-03-15T01:50:52.432Z,11.30
2019-03-15T01:53:20.478Z,13.40
2019-03-15T01:55:48.553Z,12.93
2019-03-15T01:58:16.690Z,14.03
2019-03-15T02:00:45.409Z,17.07
2019-03-15T02:03:13.672Z,12.70
2019-03-15T02:05:42.475Z,12.50
2019-03-15T02:08:10.853Z,15.53
2019-03-15T02:10:39.419Z,13.37
2019-03-15T02:13:07.684Z,15.97
2019-03-15T02:15:35.759Z,16.27
2019-03-15T02:18:03.833Z,14.23
2019-03-15T02:20:31.953Z,11.97
2019-03-15T02:22:59.997Z,15.37
2019-03-15T02:25:28.053Z,12.53
2019-03-15T02:27:56.164Z,12.20
2019-03-15T02:30:24.213Z,17.53
2019-03-15T02:32:52.278Z,14.57
2019-03-15T02:35:20.681Z,9.90
2019-03-15T02:37:48.760Z,13.47
2019-03-15T02:40:16.805Z,12.87
2019-03-15T02:42:45.514Z,14.10
2019-03-15T02:45:13.553Z,13.90
2019-03-15T02:47:41.638Z,11.43
2019-03-15T02:50:09.933Z,16.23
2019-03-15T02:52:38.087Z,9.53
2019-03-15T02:55:06.293Z,11.97
2019-03-15T02:57:35.463Z,12.37
2019-03-15T03:00:03.921Z,10.63
2019-03-15T03:02:31.972Z,11.77
2019-03-15T03:05:00.307Z,10.70
2019-03-15T03:07:28.735Z,11.80
2019-03-15T03:09:56.953Z,10.20
2019-03-15T03:12:25.067Z,14.10
2019-03-15T03:14:53.150Z,10.40
2019-03-15T03:17:21.222Z,8.83
2019-03-15T03:19:49.526Z,13.90
2019-03-15T03:22:17.580Z,13.57
2019-03-15T03:24:45.662Z,11.63
2019-03-15T03:27:13.771Z,11.90
2019-03-15T03:29:41.872Z,13.67
2019-03-15T03:32:09.902Z,8.77
2019-03-15T03:34:40.458Z,9.17
2019-03-15T03:37:08.073Z,13.33
2019-03-15T03:39:36.138Z,11.87
2019-03-15T03:42:04.588Z,9.30
2019-03-15T03:44:32.660Z,11.17
2019-03-15T03:47:00.721Z,13.17
2019-03-15T03:49:28.918Z,6.73
2019-03-15T03:51:56.965Z,9.23
2019-03-15T03:54:25.043Z,5.83
2019-03-15T03:56:53.285Z,9.80
2019-03-15T03:59:21.341Z,6.10
2019-03-15T04:01:49.395Z,6.80
2019-03-15T04:04:17.597Z,7.00
2019-03-15T04:06:45.671Z,8.03
2019-03-15T04:09:13.712Z,9.37
2019-03-15T04:11:54.653Z,7.67
2019-03-15T04:14:11.873Z,10.00
2019-03-15T04:16:39.933Z,8.90
2019-03-15T04:19:08.474Z,10.47
2019-03-15T04:21:36.635Z,8.70
2019-03-15T04:24:04.919Z,12.47
2019-03-15T04:26:33.115Z,10.18
2019-03-15T04:29:01.285Z,13.70
2019-03-15T04:31:29.515Z,11.87
2019-03-15T04:33:58.849Z,9.13
2019-03-15T04:36:26.914Z,12.37
2019-03-15T04:38:54.965Z,6.90
2019-03-15T04:41:23.123Z,11.63
2019-03-15T04:43:51.204Z,9.90
2019-03-15T04:46:19.264Z,14.17
2019-03-15T04:48:47.558Z,13.10
2019-03-15T04:51:15.811Z,10.90
2019-03-15T04:53:44.310Z,13.00
2019-03-15T04:56:12.429Z,23.17
2019-03-15T04:58:40.503Z,19.50
2019-03-15T05:01:08.609Z,21.73
2019-03-15T05:03:37.119Z,22.67
2019-03-15T05:06:05.306Z,21.87
2019-03-15T05:08:33.680Z,17.20
2019-03-15T05:11:02.054Z,20.70
2019-03-15T05:13:30.454Z,25.50
2019-03-15T05:15:58.873Z,33.00
2019-03-15T05:18:27.146Z,27.03
2019-03-15T05:20:55.202Z,25.90
2019-03-15T05:23:23.253Z,21.67
2019-03-15T05:25:51.410Z,24.80
2019-03-15T05:28:19.501Z,25.63
2019-03-15T05:30:47.904Z,21.07
2019-03-15T05:33:16.107Z,26.30
2019-03-15T05:35:44.202Z,24.80
2019-03-15T05:38:12.249Z,27.95
2019-03-15T05:40:40.377Z,28.50
2019-03-15T05:43:08.446Z,16.97
2019-03-15T05:45:36.509Z,23.83
2019-03-15T05:48:04.841Z,24.00
2019-03-15T05:50:32.898Z,25.00
2019-03-15T05:53:00.986Z,20.27
2019-03-15T05:55:29.179Z,27.58
2019-03-15T05:57:57.230Z,26.07
2019-03-15T06:00:25.323Z,20.00
2019-03-15T06:02:53.513Z,22.47
2019-03-15T06:05:21.585Z,30.20
2019-03-15T06:07:49.649Z,29.13
2019-03-15T06:10:18.019Z,25.60
2019-03-15T06:12:46.091Z,23.10
2019-03-15T06:15:14.897Z,28.53
2019-03-15T06:17:43.045Z,30.53
2019-03-15T06:20:11.098Z,25.47
2019-03-15T06:22:39.173Z,21.97
2019-03-15T06:25:07.366Z,27.43
2019-03-15T06:27:35.423Z,23.20
2019-03-15T06:30:03.608Z,25.70
2019-03-15T06:32:31.796Z,23.57
2019-03-15T06:34:59.839Z,26.63
2019-03-15T06:37:27.906Z,23.40
2019-03-15T06:39:56.016Z,25.90
2019-03-15T06:42:24.074Z,23.63
2019-03-15T06:44:57.997Z,32.97
2019-03-15T06:47:22.044Z,27.20
2019-03-15T06:49:50.097Z,26.03
2019-03-15T06:52:18.178Z,27.57
2019-03-15T06:54:46.289Z,31.20
2019-03-15T06:57:14.339Z,26.07
2019-03-15T06:59:42.408Z,27.80
2019-03-15T07:02:10.522Z,29.03
2019-03-15T07:04:38.592Z,27.00
2019-03-15T07:07:06.669Z,25.77
2019-03-15T07:09:35.017Z,27.87
2019-03-15T07:12:09.183Z,24.70
2019-03-15T07:14:32.795Z,32.33
2019-03-15T07:17:01.258Z,22.00
2019-03-15T07:19:30.662Z,22.83
2019-03-15T07:21:58.837Z,23.70
2019-03-15T07:24:26.945Z,26.90
2019-03-15T07:26:55.018Z,25.53
2019-03-15T07:29:23.205Z,22.40
2019-03-15T07:31:51.424Z,21.70
2019-03-15T07:34:19.514Z,22.77
2019-03-15T07:36:47.566Z,22.63
2019-03-15T07:39:16.046Z,19.50
2019-03-15T07:41:45.293Z,27.97
2019-03-15T07:44:13.302Z,24.83
2019-03-15T07:46:41.488Z,26.50
2019-03-15T07:49:09.569Z,24.17
2019-03-15T07:51:37.641Z,20.80
2019-03-15T07:54:05.781Z,24.80
2019-03-15T07:56:33.839Z,25.67
2019-03-15T07:59:01.977Z,30.63
2019-03-15T08:01:30.169Z,19.67
2019-03-15T08:03:58.244Z,23.53
2019-03-15T08:06:34.824Z,25.43
2019-03-15T08:08:56.101Z,23.30
2019-03-15T08:11:24.174Z,24.67
2019-03-15T08:13:52.245Z,20.53
2019-03-15T08:16:20.443Z,21.87
2019-03-15T08:18:48.932Z,22.83
2019-03-15T08:21:17.021Z,21.67
2019-03-15T08:23:45.218Z,23.20
2019-03-15T08:26:13.291Z,22.70
2019-03-15T08:28:41.390Z,23.93
2019-03-15T08:31:09.718Z,24.27
2019-03-15T08:33:37.785Z,23.10
2019-03-15T08:36:05.859Z,26.37
2019-03-15T08:38:46.648Z,23.80
2019-03-15T08:41:03.866Z,21.40
2019-03-15T08:43:31.942Z,21.47
2019-03-15T08:46:02.773Z,18.97
2019-03-15T08:48:31.950Z,25.73
2019-03-15T08:50:59.582Z,20.50
2019-03-15T08:53:27.725Z,18.33
2019-03-15T08:55:55.782Z,22.70
2019-03-15T08:58:23.842Z,20.73
2019-03-15T09:00:52.070Z,24.67
2019-03-15T09:03:27.867Z,21.63
2019-03-15T09:05:49.853Z,21.00
2019-03-15T09:08:18.242Z,21.40
2019-03-15T09:10:46.325Z,22.03
2019-03-15T09:13:14.381Z,24.10
2019-03-15T09:15:42.486Z,24.73
2019-03-15T09:18:10.536Z,27.07
2019-03-15T09:20:38.913Z,25.23
2019-03-15T09:23:07.013Z,25.70
2019-03-15T09:25:35.057Z,20.10
2019-03-15T09:28:03.093Z,20.27
2019-03-15T09:30:31.320Z,24.43
2019-03-15T09:33:02.773Z,22.83
2019-03-15T09:35:29.120Z,22.07
2019-03-15T09:37:57.323Z,23.23
2019-03-15T09:40:26.111Z,19.40
2019-03-15T09:42:54.273Z,27.20
2019-03-15T09:45:22.622Z,22.90
2019-03-15T09:47:50.665Z,20.07
2019-03-15T09:50:33.186Z,18.20
2019-03-15T09:52:48.664Z,23.27
2019-03-15T09:55:16.723Z,19.43
2019-03-15T09:57:45.081Z,23.43
2019-03-15T10:00:14.285Z,20.30
2019-03-15T10:02:42.353Z,14.33
2019-03-15T10:05:11.760Z,18.50
2019-03-15T10:07:43.101Z,17.97
2019-03-15T10:10:13.942Z,14.87
2019-03-15T10:12:41.354Z,14.97
2019-03-15T10:15:10.666Z,15.13
2019-03-15T10:17:39.630Z,14.40
2019-03-15T10:20:08.259Z,15.13
2019-03-15T10:22:36.694Z,16.13
2019-03-15T10:25:04.911Z,14.90
2019-03-15T10:27:32.982Z,12.17
2019-03-15T10:30:01.081Z,11.97
2019-03-15T10:32:29.203Z,16.30
2019-03-15T10:34:57.301Z,20.30
2019-03-15T10:37:25.609Z,14.43
2019-03-15T10:39:53.753Z,18.13
2019-03-15T10:42:21.918Z,14.80
2019-03-15T10:44:50.026Z,14.83
2019-03-15T10:47:18.104Z,18.33
2019-03-15T10:49:46.208Z,14.13
2019-03-15T10:52:14.424Z,17.17
2019-03-15T10:54:42.497Z,14.00
2019-03-15T10:57:10.606Z,18.43
2019-03-15T10:59:38.825Z,17.63
2019-03-15T11:02:06.974Z,20.77
2019-03-15T11:04:35.025Z,20.73
2019-03-15T11:07:03.183Z,22.17
2019-03-15T11:09:31.347Z,22.40
2019-03-15T11:11:59.474Z,21.17
2019-03-15T11:14:27.601Z,19.33
2019-03-15T11:16:55.665Z,16.20
2019-03-15T11:19:26.692Z,17.40
2019-03-15T11:21:55.038Z,20.27
2019-03-15T11:24:23.420Z,13.70
2019-03-15T11:26:51.492Z,15.70
2019-03-15T11:29:21.501Z,18.07
2019-03-15T11:31:49.601Z,16.87
2019-03-15T11:34:17.754Z,14.47
2019-03-15T11:36:57.753Z,14.93
2019-03-15T11:39:19.332Z,16.67
2019-03-15T11:41:47.504Z,17.80
2019-03-15T11:44:16.757Z,17.43
2019-03-15T11:46:44.932Z,15.23
2019-03-15T11:49:15.649Z,17.67
2019-03-15T11:51:45.074Z,14.37
2019-03-15T11:54:15.337Z,16.47
2019-03-15T11:56:43.440Z,13.83
2019-03-15T11:59:11.749Z,16.33
2019-03-15T12:01:40.943Z,18.50
2019-03-15T12:04:10.825Z,13.33
2019-03-15T12:06:39.045Z,11.50
2019-03-15T12:09:07.709Z,13.20
2019-03-15T12:11:35.922Z,13.13
2019-03-15T12:14:04.397Z,9.17
2019-03-15T12:16:32.445Z,16.43
2019-03-15T12:19:00.597Z,7.33
2019-03-15T12:21:28.757Z,8.40
2019-03-15T12:23:56.903Z,9.67
2019-03-15T12:26:39.483Z,6.20
2019-03-15T12:28:57.174Z,5.20
2019-03-15T12:31:26.433Z,7.97
2019-03-15T12:33:54.634Z,4.83
2019-03-15T12:36:23.157Z,4.10
2019-03-15T12:38:51.277Z,5.00
2019-03-15T12:41:19.557Z,5.43
2019-03-15T12:43:47.953Z,6.33
2019-03-15T12:46:18.167Z,6.57
2019-03-15T12:48:46.427Z,4.43
2019-03-15T12:51:16.458Z,4.80
2019-03-15T12:53:44.544Z,4.17
2019-03-15T12:56:12.739Z,3.80
2019-03-15T12:58:41.058Z,4.47
2019-03-15T13:01:09.158Z,6.47
2019-03-15T13:03:37.359Z,3.90
2019-03-15T13:06:06.615Z,4.30
2019-03-15T13:08:34.743Z,3.80
2019-03-15T13:11:02.888Z,4.60
2019-03-15T13:13:31.610Z,5.23
2019-03-15T13:15:59.786Z,3.13
2019-03-15T13:18:27.964Z,3.53
2019-03-15T13:20:57.213Z,3.53
2019-03-15T13:23:25.286Z,4.60
2019-03-15T13:25:54.677Z,2.80
2019-03-15T13:28:23.306Z,4.40
2019-03-15T13:30:51.415Z,3.80
2019-03-15T13:33:21.126Z,5.83
2019-03-15T13:35:49.734Z,7.00
2019-03-15T13:38:17.916Z,4.27
2019-03-15T13:40:46.588Z,5.67
2019-03-15T13:43:14.819Z,6.87
2019-03-15T13:45:44.064Z,6.60
2019-03-15T13:48:12.246Z,6.87
2019-03-15T13:50:40.520Z,7.83
2019-03-15T13:53:09.606Z,6.60
2019-03-15T13:55:37.677Z,6.70
2019-03-15T13:58:05.978Z,7.53
2019-03-15T14:00:35.053Z,6.23
2019-03-15T14:03:03.253Z,6.83
2019-03-15T14:05:31.524Z,9.67
2019-03-15T14:08:11.089Z,12.53
2019-03-15T14:10:29.529Z,9.03
2019-03-15T14:12:57.784Z,9.07
2019-03-15T14:15:25.914Z,10.80
2019-03-15T14:17:54.070Z,8.43
2019-03-15T14:20:22.390Z,9.67
2019-03-15T14:22:50.534Z,13.00
2019-03-15T14:25:20.058Z,8.10
2019-03-15T14:27:48.411Z,13.70
2019-03-15T14:30:17.830Z,9.63
2019-03-15T14:32:46.690Z,12.47
2019-03-15T14:35:14.929Z,14.10
2019-03-15T14:37:44.332Z,8.50
2019-03-15T14:40:12.975Z,11.43
2019-03-15T14:42:41.539Z,11.77
2019-03-15T14:45:10.111Z,8.63
2019-03-15T14:47:38.339Z,12.10
2019-03-15T14:50:06.502Z,14.27
2019-03-15T14:52:34.581Z,9.80
2019-03-15T14:55:02.676Z,11.27
2019-03-15T14:57:30.826Z,13.20
2019-03-15T15:00:00.062Z,15.37
2019-03-15T15:02:29.377Z,12.33
2019-03-15T15:04:57.978Z,16.23
2019-03-15T15:07:26.041Z,11.73
2019-03-15T15:09:54.205Z,20.10
2019-03-15T15:12:22.488Z,10.57
2019-03-15T15:14:50.776Z,15.73
2019-03-15T15:17:19.033Z,17.73
2019-03-15T15:19:47.177Z,16.90
2019-03-15T15:22:15.915Z,15.30
2019-03-15T15:24:44.151Z,11.97
2019-03-15T15:27:12.382Z,15.53
2019-03-15T15:29:41.484Z,15.77
2019-03-15T15:32:09.873Z,18.50
2019-03-15T15:34:38.240Z,16.47
2019-03-15T15:37:07.922Z,16.00
2019-03-15T15:39:36.299Z,14.60
2019-03-15T15:42:05.445Z,15.67
2019-03-15T15:44:33.741Z,18.57
2019-03-15T15:47:03.678Z,17.43
2019-03-15T15:49:33.346Z,13.67
2019-03-15T15:52:01.423Z,16.47
2019-03-15T15:54:30.932Z,16.67
2019-03-15T15:56:59.137Z,16.70
2019-03-15T15:59:28.439Z,15.63
2019-03-15T16:01:57.602Z,17.27
2019-03-15T16:04:26.007Z,15.37
2019-03-15T16:06:54.184Z,17.30
2019-03-15T16:09:22.274Z,14.17
2019-03-15T16:11:50.780Z,15.40
2019-03-15T16:14:18.824Z,15.97
2019-03-15T16:16:46.906Z,16.23
2019-03-15T16:19:16.517Z,14.93
2019-03-15T16:21:44.600Z,20.67
2019-03-15T16:24:14.141Z,17.83
2019-03-15T16:26:44.235Z,17.03
2019-03-15T16:29:12.315Z,16.77
2019-03-15T16:31:40.597Z,16.27
2019-03-15T16:34:09.217Z,18.90
2019-03-15T16:36:39.093Z,16.93
2019-03-15T16:39:07.474Z,16.40
2019-03-15T16:41:35.849Z,15.73
2019-03-15T16:44:03.889Z,16.70
2019-03-15T16:46:31.959Z,19.83
2019-03-15T16:49:00.275Z,17.03
2019-03-15T16:51:28.479Z,22.80
2019-03-15T16:53:56.632Z,14.47
2019-03-15T16:56:25.129Z,14.77
2019-03-15T16:58:53.242Z,14.40
2019-03-15T17:01:21.356Z,18.07
2019-03-15T17:03:49.653Z,17.20
2019-03-15T17:06:17.723Z,14.30
2019-03-15T17:08:45.910Z,19.30
2019-03-15T17:11:15.160Z,14.00
2019-03-15T17:13:43.207Z,19.23
2019-03-15T17:16:11.434Z,13.73
2019-03-15T17:18:39.966Z,18.13
2019-03-15T17:21:08.102Z,17.83
2019-03-15T17:23:36.277Z,18.20
2019-03-15T17:26:04.441Z,20.60
2019-03-15T17:28:32.579Z,16.40
2019-03-15T17:31:09.870Z,18.63
2019-03-15T17:33:30.703Z,20.53
2019-03-15T17:35:58.848Z,19.43
2019-03-15T17:38:28.790Z,15.10
2019-03-15T17:40:57.235Z,17.97
2019-03-15T17:43:25.396Z,18.27
2019-03-15T17:45:54.485Z,22.10
2019-03-15T17:48:22.662Z,19.13
2019-03-15T17:50:50.717Z,17.83
2019-03-15T17:53:18.823Z,19.93
2019-03-15T17:55:47.341Z,21.50
2019-03-15T17:58:15.411Z,20.20
2019-03-15T18:00:47.106Z,20.23
2019-03-15T18:03:21.504Z,17.80
2019-03-15T18:05:45.633Z,18.80
2019-03-15T18:08:13.777Z,21.70
2019-03-15T18:10:42.145Z,18.30
2019-03-15T18:13:12.069Z,19.03
2019-03-15T18:15:40.138Z,17.73
2019-03-15T18:18:08.609Z,19.77
2019-03-15T18:20:36.809Z,13.77
2019-03-15T18:23:06.687Z,20.63
2019-03-15T18:25:35.121Z,22.80
2019-03-15T18:28:04.406Z,18.87
2019-03-15T18:30:32.585Z,20.30
2019-03-15T18:33:00.955Z,20.90
2019-03-15T18:35:33.903Z,26.00
2019-03-15T18:37:58.843Z,16.83
2019-03-15T18:40:27.642Z,22.33
2019-03-15T18:42:55.823Z,22.27
2019-03-15T18:45:23.913Z,19.83
2019-03-15T18:47:52.316Z,22.20
2019-03-15T18:50:21.189Z,22.23
2019-03-15T18:52:49.284Z,26.37
2019-03-15T18:55:18.677Z,24.20
2019-03-15T18:57:47.290Z,21.60
2019-03-15T19:00:16.521Z,23.43
2019-03-15T19:02:44.957Z,22.97
2019-03-15T19:05:13.331Z,23.07
2019-03-15T19:07:41.509Z,21.43
2019-03-15T19:10:09.770Z,21.73
2019-03-15T19:12:38.020Z,22.60
2019-03-15T19:15:06.188Z,22.63
2019-03-15T19:17:34.423Z,17.57
2019-03-15T19:20:02.613Z,14.57
2019-03-15T19:22:30.648Z,24.97
2019-03-15T19:24:58.969Z,19.70
2019-03-15T19:27:27.253Z,25.30
2019-03-15T19:29:55.531Z,22.80
2019-03-15T19:32:24.776Z,24.90
2019-03-15T19:34:52.900Z,23.33
2019-03-15T19:37:21.079Z,21.07
2019-03-15T19:39:49.428Z,25.23
2019-03-15T19:42:17.927Z,24.60
2019-03-15T19:44:46.032Z,24.40
2019-03-15T19:47:14.514Z,19.93
2019-03-15T19:49:42.792Z,20.83
2019-03-15T19:52:10.967Z,19.73
2019-03-15T19:54:39.088Z,16.20
2019-03-15T19:57:07.332Z,19.83
2019-03-15T19:59:35.508Z,23.57
2019-03-15T20:02:03.683Z,31.27
2019-03-15T20:04:32.987Z,25.20
2019-03-15T20:07:01.157Z,21.03
2019-03-15T20:09:29.437Z,25.80
2019-03-15T20:11:57.520Z,24.53
2019-03-15T20:14:25.601Z,24.80
2019-03-15T20:16:53.977Z,23.20
2019-03-15T20:19:22.065Z,23.27
2019-03-15T20:21:50.156Z,22.33
2019-03-15T20:24:19.770Z,27.67
2019-03-15T20:26:48.023Z,28.90
2019-03-15T20:29:16.212Z,22.40
2019-03-15T20:31:46.634Z,21.93
2019-03-15T20:34:14.811Z,27.87
2019-03-15T20:36:44.725Z,24.73
2019-03-15T20:39:13.032Z,21.70
2019-03-15T20:41:41.192Z,24.73
2019-03-15T20:44:09.719Z,28.63
2019-03-15T20:46:39.986Z,26.17
2019-03-15T20:49:09.223Z,22.83
2019-03-15T20:51:37.505Z,27.27
2019-03-15T20:54:06.889Z,27.70
2019-03-15T20:56:35.037Z,23.07
2019-03-15T20:59:03.157Z,21.60
2019-03-15T21:01:31.535Z,23.90
2019-03-15T21:03:59.609Z,22.77
2019-03-15T21:06:27.771Z,26.83
2019-03-15T21:08:55.850Z,21.77
2019-03-15T21:11:24.039Z,28.80
2019-03-15T21:13:53.440Z,30.67
2019-03-15T21:16:21.914Z,26.60
2019-03-15T21:18:49.978Z,29.27
2019-03-15T21:21:22.376Z,28.40
2019-03-15T21:23:51.863Z,29.23
2019-03-15T21:26:19.917Z,23.23
2019-03-15T21:28:47.972Z,26.90
2019-03-15T21:31:16.478Z,19.13
2019-03-15T21:33:44.631Z,23.23
2019-03-15T21:36:13.827Z,24.60
2019-03-15T21:38:48.012Z,20.80
2019-03-15T21:41:12.215Z,23.67
2019-03-15T21:43:41.742Z,23.60
2019-03-15T21:46:11.460Z,30.27
2019-03-15T21:48:39.499Z,21.87
2019-03-15T21:51:07.599Z,25.47
2019-03-15T21:53:36.061Z,24.33
2019-03-15T21:56:04.091Z,22.47
2019-03-15T21:58:32.193Z,24.00
2019-03-15T22:01:02.574Z,26.23
2019-03-15T22:03:30.292Z,25.87
2019-03-15T22:05:58.406Z,25.80
2019-03-15T22:08:26.580Z,30.20
2019-03-15T22:10:56.445Z,23.53
2019-03-15T22:13:24.570Z,25.23
2019-03-15T22:15:52.958Z,29.27
2019-03-15T22:18:21.137Z,23.63
2019-03-15T22:20:49.326Z,22.80
2019-03-15T22:23:19.533Z,26.00
2019-03-15T22:25:47.854Z,24.87
2019-03-15T22:28:17.385Z,25.17
2019-03-15T22:30:45.502Z,28.30
2019-03-15T22:33:13.981Z,24.80
2019-03-15T22:35:43.169Z,21.97
2019-03-15T22:38:25.057Z,25.77
2019-03-15T22:40:41.659Z,23.43
2019-03-15T22:43:10.053Z,24.93
2019-03-15T22:45:42.135Z,25.67
2019-03-15T22:48:10.530Z,24.83
2019-03-15T22:50:38.671Z,18.50
2019-03-15T22:53:07.175Z,23.20
2019-03-15T22:55:35.289Z,23.30
2019-03-15T22:58:04.812Z,28.20
2019-03-15T23:00:37.202Z,26.20
2019-03-15T23:03:06.237Z,24.90
2019-03-15T23:05:34.661Z,25.07
2019-03-15T23:08:04.041Z,26.60
2019-03-15T23:10:32.280Z,26.43
2019-03-15T23:13:00.447Z,25.07
2019-03-15T23:15:28.772Z,26.17
2019-03-15T23:17:56.862Z,22.77
2019-03-15T23:20:26.778Z,27.73
2019-03-15T23:22:55.137Z,26.77
2019-03-15T23:25:23.494Z,26.23
2019-03-15T23:27:51.815Z,27.50
2019-03-15T23:30:20.160Z,23.77
2019-03-15T23:32:48.350Z,25.47
2019-03-15T23:35:16.758Z,26.33
2019-03-15T23:37:45.321Z,22.80
2019-03-15T23:40:13.430Z,28.00
2019-03-15T23:42:41.625Z,21.40
2019-03-15T23:45:11.027Z,23.97
2019-03-15T23:47:39.197Z,21.23
2019-03-15T23:50:07.999Z,20.93
2019-03-15T23:52:36.365Z,23.73
2019-03-15T23:55:04.752Z,25.27
2019-03-15T23:57:32.898Z,21.87
